Impacts METAR Board
IDs:

KJCT - Junction/Kimble Cnty, TX, US

Updated at: 2100 UTC 21 May 2022
Potential Impact None Slight Moderate High
Time 21/09Z 21/10Z 21/11Z 21/12Z 21/13Z 21/14Z 21/15Z 21/16Z 21/17Z 21/18Z 21/19Z 21/20Z 21/21Z
Temp76 76 74 74 75 78 83 86 91 92 96 98 100
Dewpt70 70 70 69 69 69 68 66 65 64 65 60 58
Altim29.75 29.76 29.78 29.80 29.82 29.84 29.85 29.86 29.86 29.86 29.85 29.84 29.83
VIS10 10 10 10 10 10 10 10 10 10 10 10 10
CIG-- -- 15 15 15 -- -- -- -- -- 65 -- --
CoverCLRCLRBKNOVCOVCCLRCLRCLRCLRFEWBKNFEWFEW
FltCatVFRVFRMVFRMVFRMVFRVFRVFRVFRVFRVFRVFRVFRVFR
WX--------------------------
WDir0000170190220180150200000
WSpd0 0 5 0 3 4 7 6 6 7 4 6 5
WGst-- -- -- -- -- -- -- 17 -- -- -- -- --
Raw hourly METARs
KJCT 210851Z AUTO 00000KT 10SM CLR 24/21 A2975 RMK AO2 SLP033 T02440211 51004
KJCT 210951Z AUTO 00000KT 10SM CLR 24/21 A2976 RMK AO2 SLP037 T02440211
KJCT 211100Z AUTO VRB05KT 10SM BKN015 23/21 A2978 RMK AO2 T02330211
KJCT 211151Z AUTO 00000KT 10SM OVC015 23/21 A2980 RMK AO2 SLP050 T02330206 10267 20228 53015
KJCT 211251Z AUTO 17003KT 10SM OVC015 24/21 A2982 RMK AO2 SLP059 T02390206
KJCT 211351Z AUTO 19004KT 10SM CLR 26/21 A2984 RMK AO2 SLP065 T02560206
KJCT 211451Z AUTO 22007KT 10SM CLR 28/20 A2985 RMK AO2 SLP067 T02830200 51017
KJCT 211551Z AUTO 18006G17KT 10SM CLR 30/19 A2986 RMK AO2 SLP069 T03000189 $
KJCT 211651Z AUTO 15006KT 10SM CLR 33/18 A2986 RMK AO2 SLP068 T03280183 $
KJCT 211751Z AUTO 20007KT 170V260 10SM FEW060 33/18 A2986 RMK AO2 SLP071 T03330178 10344 20233 51004 $
KJCT 211851Z AUTO VRB04KT 10SM BKN065 BKN075 36/18 A2985 RMK AO2 SLP066 T03560183 $
KJCT 211951Z AUTO VRB06KT 10SM FEW100 37/16 A2984 RMK AO2 LTG DSNT NE SLP061 T03670156 $
KJCT 212051Z AUTO VRB05KT 10SM FEW090 38/14 A2983 RMK AO2 LTG DSNT NE-SE SLP059 T03780144 56010 $



Page loaded:  21:41 UTC  |   02:41 PM Pacific  |   03:41 PM Mountain  |   04:41 PM Central  |   05:41 PM Eastern

 

ADVISORIES

FORECASTS

FORECASTS

OBSERVATIONS

USER TOOLS

ABOUT US